Aeroporto :
LOGIN :

Iscrizione | Disclaimer

   EN    FR    IT 

 










Sommario :    VFR   VFR Marginale   IFR   IFR Intensivo   IFR Molto Intensivo
Visibilità : 
Base nubi : 
>= 8 km
>= 3000ft
5 / 8 km
1000 / 3000 ft
1500m / 5 km
500 / 1000 ft
800 / 1500m
200 / 500 ft
< 800m
< 200 ft
Simboli :   Temporali  Nebbia  Neve Forte  Precipitazioni Forti  Vento > 20 kt
SIGMETs :   Varie  Temporali  Ghiacco  Turbolenza  Onda orograficha  Ceneri Vulcaniche







- Altitudine del aeroporto : 386 ft
- Codice IATA : QOE


ETNN - Nörvenich Airforce Base

ULTIMO METAR :
  • 190920Z 13004KT 9999 FEW020 SCT040 BKN320 07/05 Q1013 BLU+BLU TEMPO WHT

METARs OBSOLETI :
  • 190820Z 18004KT 9999 SCT027 BKN041 07/05 Q1012 BLU BLU TEMPO WHT
  • 190720Z 20003KT 9999 BKN027 BKN043 07/04 Q1012 BLU BLU TEMPO WHT

TAF TAF ETNN
Valido dal 19 a 09 ore il 19 a 18 ore UTC


190802Z 1909/1918 21010KT 9999 NSW SCT015 BKN030
TEMPO 1909/1914 18007KT 5000 -DZ BKN015
PROB30 1914/1918 22010G20KT 5000 -SHRA SCT010 BKN015TCU BY ETGL
Nessun NOTAM noto per questo aeroporto.



MetMap, La meteo Aeronautica in un colpo d'occhio ! - Copyright ORBIFLY Dicembre 2007 - Disclaimer

ORBIFLY MET'MAP TEAM :

Programmazione e sviluppo : Alexandra Zaïnal
Concezione e sviluppo : Baudouin d'Aumeries
Co-Programmazione e sviluppo : Marc-Olivier Méhu
Supporto tecnico e logistico : Manuel Goepfert
Aiuto per la traduzione : Arnaldo La Scala

Contatto : metmap@orbifly.com




FONTI E CREDITI :

   NOAA